Time;durP1;ratioP1;P1;durP2;ratioP2;P2;SDS_P1;SDS_P2;PMS_P1;PMS_P2;Temp;Humidity;BMP_temperature;BMP_pressure;BME280_temperature;BME280_humidity;BME280_pressure;Samples;Min_cycle;Max_cycle;Signal;HPM_P1;HPM_P2
2023/08/27 00:01:17;;;;;;;8.10;3.80;;;;;;;22.58;100.00;100546.27;105906;1256;64577;-54
2023/08/27 00:03:45;;;;;;;5.60;3.70;;;;;;;22.56;100.00;100567.48;105912;1252;72681;-55
2023/08/27 00:06:12;;;;;;;12.60;3.80;;;;;;;22.55;100.00;100586.36;105881;1255;61927;-54
2023/08/27 00:08:38;;;;;;;5.70;3.90;;;;;;;22.53;100.00;100606.39;105902;1253;60168;-53
2023/08/27 00:11:05;;;;;;;8.50;3.90;;;;;;;22.49;100.00;100635.67;105822;1256;73018;-52
2023/08/27 00:13:32;;;;;;;6.30;3.90;;;;;;;22.43;100.00;100661.16;105663;1257;64553;-54
2023/08/27 00:15:59;;;;;;;6.60;4.00;;;;;;;22.39;100.00;100676.36;105638;1253;72671;-53
2023/08/27 00:18:26;;;;;;;14.70;4.30;;;;;;;22.42;100.00;100688.89;105748;1256;61913;-53
2023/08/27 00:20:53;;;;;;;4.70;3.50;;;;;;;22.44;100.00;100698.20;106128;1251;60319;-54
2023/08/27 00:23:20;;;;;;;7.40;4.00;;;;;;;22.43;100.00;100699.67;105908;1252;72968;-54
2023/08/27 00:25:47;;;;;;;6.60;3.70;;;;;;;22.41;100.00;100721.06;105918;1256;64427;-55
2023/08/27 00:28:14;;;;;;;8.70;4.40;;;;;;;22.39;100.00;100736.84;106019;1256;72628;-54
2023/08/27 00:30:41;;;;;;;10.70;4.70;;;;;;;22.37;100.00;100735.74;105803;1253;60134;-55
2023/08/27 00:33:08;;;;;;;5.80;4.30;;;;;;;22.35;100.00;100729.36;105897;1251;60146;-54
2023/08/27 00:35:36;;;;;;;6.70;3.80;;;;;;;22.35;100.00;100735.48;105769;1253;73032;-53
2023/08/27 00:38:06;;;;;;;16.60;4.40;;;;;;;22.33;100.00;100741.95;105934;1256;64526;-55
2023/08/27 00:40:33;;;;;;;11.10;4.20;;;;;;;22.32;100.00;100757.32;105844;1253;72477;-55
2023/08/27 00:43:02;;;;;;;4.50;4.00;;;;;;;22.31;100.00;100761.23;105918;1256;61745;-53
2023/08/27 00:45:29;;;;;;;9.20;3.80;;;;;;;22.32;100.00;100745.70;105848;1256;59645;-54
2023/08/27 00:47:57;;;;;;;6.30;4.30;;;;;;;22.34;100.00;100715.84;105840;1251;72025;-52
2023/08/27 00:50:25;;;;;;;6.30;4.00;;;;;;;22.36;100.00;100700.27;105954;1254;63226;-51
2023/08/27 00:52:53;;;;;;;5.70;4.30;;;;;;;22.43;100.00;100669.98;105891;1253;72763;-51
2023/08/27 00:55:20;;;;;;;12.20;4.10;;;;;;;22.48;100.00;100627.63;105934;1256;61879;-54
2023/08/27 00:57:47;;;;;;;6.40;3.80;;;;;;;22.51;100.00;100596.66;105951;1253;60248;-53
2023/08/27 01:00:14;;;;;;;9.50;4.00;;;;;;;22.52;100.00;100578.83;105810;1254;73112;-54
2023/08/27 01:02:43;;;;;;;5.10;4.00;;;;;;;22.52;100.00;100579.89;106062;1255;64581;-53
2023/08/27 01:05:12;;;;;;;19.10;4.00;;;;;;;22.51;100.00;100574.53;105756;1253;73121;-51
2023/08/27 01:07:59;;;;;;;12.70;4.50;;;;;;;22.50;100.00;100565.30;105711;1256;60373;-52
2023/08/27 01:10:46;;;;;;;8.50;4.20;;;;;;;22.49;100.00;100566.23;105822;1253;60079;-52
2023/08/27 01:13:18;;;;;;;5.50;3.80;;;;;;;22.48;100.00;100565.79;105868;1253;70768;-53
2023/08/27 01:15:45;;;;;;;5.80;4.00;;;;;;;22.48;100.00;100562.24;105901;1256;63382;-54
2023/08/27 01:18:13;;;;;;;8.10;4.10;;;;;;;22.49;100.00;100573.77;105994;1252;72380;-53
2023/08/27 01:20:40;;;;;;;6.30;4.30;;;;;;;22.50;100.00;100577.59;105827;1254;61772;-52
2023/08/27 01:23:07;;;;;;;10.60;4.20;;;;;;;22.51;100.00;100572.60;105797;1252;60074;-53
2023/08/27 01:25:41;;;;;;;9.00;4.10;;;;;;;22.50;100.00;100569.86;105811;1256;73067;-52
2023/08/27 01:28:26;;;;;;;10.50;4.50;;;;;;;22.49;100.00;100574.16;105833;1257;64468;-54
2023/08/27 01:31:04;;;;;;;7.30;3.90;;;;;;;22.48;100.00;100572.46;105897;1253;72617;-53
2023/08/27 01:33:31;;;;;;;5.70;3.80;;;;;;;22.45;100.00;100571.02;105773;1256;61874;-53
2023/08/27 01:35:57;;;;;;;14.80;4.80;;;;;;;22.41;100.00;100574.64;105624;1253;60323;-52
2023/08/27 01:38:25;;;;;;;9.70;4.30;;;;;;;22.38;100.00;100582.22;105886;1257;73016;-53
2023/08/27 01:40:52;;;;;;;5.40;4.40;;;;;;;22.35;100.00;100586.98;105825;1257;64692;-53
2023/08/27 01:43:19;;;;;;;11.40;4.30;;;;;;;22.32;100.00;100592.44;105878;1253;72619;-53
2023/08/27 01:45:45;;;;;;;6.30;4.10;;;;;;;22.28;100.00;100611.33;105840;1256;62000;-53
2023/08/27 01:48:12;;;;;;;4.80;4.00;;;;;;;22.24;100.00;100639.16;105876;1253;59678;-52
2023/08/27 01:50:39;;;;;;;6.30;4.20;;;;;;;22.20;100.00;100665.81;105830;1256;73020;-54
2023/08/27 01:53:07;;;;;;;9.00;4.20;;;;;;;22.17;100.00;100677.59;105805;1253;63496;-53
2023/08/27 01:55:34;;;;;;;7.80;4.20;;;;;;;22.14;100.00;100693.45;105654;1253;72641;-54
2023/08/27 01:58:02;;;;;;;12.00;4.40;;;;;;;22.11;100.00;100708.91;105667;1257;59733;-53
2023/08/27 02:00:29;;;;;;;7.30;3.90;;;;;;;22.06;100.00;100720.04;105679;1257;60285;-52
2023/08/27 02:02:56;;;;;;;10.20;4.00;;;;;;;22.01;100.00;100736.92;105863;1252;72983;-53
2023/08/27 02:05:23;;;;;;;11.40;4.30;;;;;;;21.97;100.00;100760.34;105714;1257;64552;-53
2023/08/27 02:07:50;;;;;;;9.40;4.00;;;;;;;21.92;100.00;100777.34;105736;1253;72644;-54
2023/08/27 02:10:17;;;;;;;6.50;4.20;;;;;;;21.87;100.00;100796.12;105700;1256;61923;-54
2023/08/27 02:12:44;;;;;;;10.20;4.60;;;;;;;21.82;100.00;100809.00;105924;1253;60327;-53
2023/08/27 02:15:11;;;;;;;7.30;3.90;;;;;;;21.78;100.00;100818.39;105939;1255;72830;-54
2023/08/27 02:17:38;;;;;;;7.90;5.00;;;;;;;21.76;100.00;100829.04;105863;1256;64709;-53
2023/08/27 02:20:08;;;;;;;9.00;5.00;;;;;;;21.76;100.00;100841.15;106137;1251;72615;-53
2023/08/27 02:22:36;;;;;;;8.90;5.00;;;;;;;21.74;100.00;100847.81;105961;1257;61819;-55
2023/08/27 02:25:04;;;;;;;7.90;4.60;;;;;;;21.72;100.00;100852.50;106165;1251;60307;-54
2023/08/27 02:27:31;;;;;;;10.40;4.50;;;;;;;21.69;100.00;100850.36;105863;1251;73085;-58
2023/08/27 02:29:58;;;;;;;11.60;5.00;;;;;;;21.66;100.00;100848.77;105774;1257;64779;-55
2023/08/27 02:32:25;;;;;;;13.90;5.50;;;;;;;21.66;100.00;100850.18;105814;1253;72584;-54
2023/08/27 02:34:52;;;;;;;9.40;4.90;;;;;;;21.67;100.00;100849.61;105691;1257;61971;-58
2023/08/27 02:37:20;;;;;;;7.10;4.40;;;;;;;21.65;100.00;100846.90;105650;1253;59609;-52
2023/08/27 02:39:47;;;;;;;4.90;4.40;;;;;;;21.61;100.00;100861.52;105692;1253;71799;-52
2023/08/27 02:42:14;;;;;;;13.30;4.30;;;;;;;21.56;100.00;100869.73;105755;1257;64731;-54
2023/08/27 02:44:41;;;;;;;13.60;4.40;;;;;;;21.51;100.00;100877.55;105640;1253;72649;-52
2023/08/27 02:47:09;;;;;;;11.90;5.00;;;;;;;21.46;100.00;100882.19;105882;1253;62018;-53
2023/08/27 02:49:38;;;;;;;10.60;4.60;;;;;;;21.41;100.00;100881.62;105919;1256;59659;-53
2023/08/27 02:52:05;;;;;;;6.60;4.80;;;;;;;21.37;100.00;100885.89;105890;1253;73128;-53
2023/08/27 02:54:32;;;;;;;10.40;4.70;;;;;;;21.32;100.00;100888.44;105896;1253;64146;-54
2023/08/27 02:56:59;;;;;;;5.90;4.70;;;;;;;21.29;100.00;100896.52;105863;1253;72703;-53
2023/08/27 02:59:27;;;;;;;6.10;4.60;;;;;;;21.26;100.00;100902.85;105915;1256;60592;-53
2023/08/27 03:01:54;;;;;;;14.90;4.60;;;;;;;21.23;100.00;100908.61;105985;1253;60291;-54
2023/08/27 03:04:22;;;;;;;22.60;4.50;;;;;;;21.20;100.00;100912.95;105886;1253;71829;-52
2023/08/27 03:06:50;;;;;;;11.60;4.40;;;;;;;21.20;100.00;100920.17;105932;1257;63807;-54
2023/08/27 03:09:17;;;;;;;9.30;5.30;;;;;;;21.18;100.00;100923.07;105952;1253;72637;-54
2023/08/27 03:11:44;;;;;;;10.80;4.70;;;;;;;21.16;100.00;100921.13;105773;1253;61836;-53
2023/08/27 03:14:11;;;;;;;6.70;5.00;;;;;;;21.13;100.00;100923.52;105848;1253;60463;-51
2023/08/27 03:16:38;;;;;;;11.70;5.50;;;;;;;21.14;100.00;100929.28;105835;1256;73858;-54
2023/08/27 03:19:07;;;;;;;10.10;4.80;;;;;;;21.13;100.00;100931.98;106057;1256;64380;-54
2023/08/27 03:21:36;;;;;;;7.20;4.50;;;;;;;21.11;100.00;100929.98;105900;1257;72765;-52
2023/08/27 03:24:03;;;;;;;8.90;4.30;;;;;;;21.12;100.00;100932.02;105828;1256;62496;-53
2023/08/27 03:26:30;;;;;;;10.80;5.10;;;;;;;21.15;100.00;100938.71;105896;1254;60432;-54
2023/08/27 03:28:57;;;;;;;8.10;4.60;;;;;;;21.15;100.00;100942.36;105788;1254;73881;-53
2023/08/27 03:31:24;;;;;;;6.90;4.80;;;;;;;21.15;100.00;100936.27;105884;1256;64692;-53
2023/08/27 03:33:51;;;;;;;12.60;4.70;;;;;;;21.14;100.00;100944.35;105844;1253;72484;-52
2023/08/27 03:36:17;;;;;;;14.90;5.00;;;;;;;21.14;100.00;100939.28;105835;1253;61762;-53
2023/08/27 03:38:44;;;;;;;15.10;4.60;;;;;;;21.16;100.00;100937.05;105644;1253;60523;-54
2023/08/27 03:41:12;;;;;;;8.60;4.30;;;;;;;21.18;100.00;100933.46;105668;1254;73708;-52
2023/08/27 03:43:39;;;;;;;7.60;5.20;;;;;;;21.18;100.00;100927.98;105907;1257;65174;-51
2023/08/27 03:46:05;;;;;;;11.80;5.50;;;;;;;21.20;100.00;100924.02;105679;1254;72640;-54
2023/08/27 03:48:32;;;;;;;8.10;4.90;;;;;;;21.21;100.00;100924.65;105805;1254;61608;-53
2023/08/27 03:50:59;;;;;;;11.60;4.90;;;;;;;21.23;100.00;100928.77;105691;1253;60430;-55
2023/08/27 03:53:26;;;;;;;8.70;4.80;;;;;;;21.26;100.00;100930.91;105669;1257;72665;-53
2023/08/27 03:55:55;;;;;;;8.60;4.80;;;;;;;21.31;100.00;100931.16;105718;1257;64767;-52
2023/08/27 03:58:22;;;;;;;10.30;5.00;;;;;;;21.35;100.00;100932.30;105707;1253;72610;-55
2023/08/27 04:00:49;;;;;;;6.30;4.80;;;;;;;21.41;100.00;100930.23;105870;1256;62372;-52
2023/08/27 04:03:16;;;;;;;10.50;5.10;;;;;;;21.48;100.00;100933.00;105657;1253;60447;-53
2023/08/27 04:05:43;;;;;;;9.30;5.40;;;;;;;21.55;100.00;100928.23;105674;1253;73639;-54
2023/08/27 04:08:10;;;;;;;7.60;5.00;;;;;;;21.61;100.00;100928.22;105898;1256;63564;-53
2023/08/27 04:10:37;;;;;;;6.20;4.80;;;;;;;21.69;100.00;100927.27;106204;1253;72459;-55
2023/08/27 04:13:04;;;;;;;8.20;4.90;;;;;;;21.79;100.00;100928.45;105925;1256;62043;-53
2023/08/27 04:15:33;;;;;;;8.20;5.40;;;;;;;21.92;100.00;100935.09;105907;1253;60450;-52
2023/08/27 04:18:00;;;;;;;8.20;5.00;;;;;;;22.09;100.00;100933.75;105712;1253;74024;-54
2023/08/27 04:20:29;;;;;;;9.70;4.90;;;;;;;22.24;100.00;100914.21;105701;1256;64625;-54
2023/08/27 04:22:56;;;;;;;7.90;5.10;;;;;;;22.37;100.00;100907.98;105879;1251;72682;-52
2023/08/27 04:25:24;;;;;;;8.60;4.50;;;;;;;22.51;100.00;100907.88;105983;1256;61960;-53
2023/08/27 04:27:51;;;;;;;12.60;5.20;;;;;;;22.67;100.00;100891.80;105886;1253;60499;-53
2023/08/27 04:30:18;;;;;;;11.70;5.00;;;;;;;22.80;100.00;100859.29;105870;1253;73810;-53
2023/08/27 04:32:45;;;;;;;13.70;4.60;;;;;;;22.96;100.00;100838.07;105912;1256;64576;-53
2023/08/27 04:35:12;;;;;;;10.20;4.30;;;;;;;23.10;100.00;100803.56;105798;1253;72577;-58
2023/08/27 04:37:39;;;;;;;5.20;4.40;;;;;;;23.26;100.00;100755.17;105779;1257;60363;-53
2023/08/27 04:40:06;;;;;;;9.80;4.90;;;;;;;23.45;100.00;100703.19;105845;1253;60820;-54
2023/08/27 04:42:33;;;;;;;8.40;4.90;;;;;;;23.64;100.00;100674.94;106067;1254;73951;-53
2023/08/27 04:45:00;;;;;;;11.50;4.80;;;;;;;23.77;100.00;100611.81;105941;1256;64532;-52
2023/08/27 04:47:28;;;;;;;7.10;4.70;;;;;;;23.95;100.00;100544.34;105855;1253;72961;-53
2023/08/27 04:49:55;;;;;;;9.20;5.50;;;;;;;24.11;100.00;100469.69;105759;1256;60482;-54
2023/08/27 04:52:22;;;;;;;6.70;4.90;;;;;;;24.18;100.00;100365.16;105770;1253;60450;-53
2023/08/27 04:54:58;;;;;;;10.70;5.00;;;;;;;24.14;100.00;100235.78;105944;1256;73799;-53
2023/08/27 04:57:25;;;;;;;10.90;4.80;;;;;;;24.12;100.00;100179.52;105828;1256;64608;-54
2023/08/27 04:59:56;;;;;;;12.30;5.20;;;;;;;24.21;100.00;100194.13;105885;1253;72645;-54
2023/08/27 05:02:23;;;;;;;11.10;4.50;;;;;;;24.37;100.00;100205.38;105755;1256;61774;-53
2023/08/27 05:04:50;;;;;;;8.50;5.10;;;;;;;24.55;100.00;100187.06;105794;1253;60460;-53
2023/08/27 05:07:17;;;;;;;9.70;5.00;;;;;;;24.63;100.00;100138.01;105848;1253;74274;-52
2023/08/27 05:09:46;;;;;;;8.50;4.90;;;;;;;24.68;100.00;100094.73;105679;1257;64554;-53
2023/08/27 05:12:14;;;;;;;8.90;4.90;;;;;;;24.76;100.00;100066.93;105700;1255;72627;-54
2023/08/27 05:14:41;;;;;;;10.00;4.70;;;;;;;24.85;100.00;100032.14;105669;1253;62383;-53
2023/08/27 05:17:08;;;;;;;8.40;4.40;;;;;;;24.92;100.00;100011.59;105725;1253;60437;-52
2023/08/27 05:19:35;;;;;;;9.30;4.70;;;;;;;24.97;100.00;99994.11;105925;1254;72455;-52
2023/08/27 05:22:02;;;;;;;12.60;5.10;;;;;;;24.98;100.00;99973.73;105743;1257;64612;-53
2023/08/27 05:24:30;;;;;;;7.60;5.00;;;;;;;24.93;100.00;99950.10;105767;1253;72544;-52
2023/08/27 05:26:57;;;;;;;11.00;5.20;;;;;;;24.88;100.00;99934.15;105675;1256;60567;-53
2023/08/27 05:29:24;;;;;;;11.90;5.80;;;;;;;24.80;100.00;99935.20;105914;1251;60724;-54
2023/08/27 05:31:51;;;;;;;6.40;4.70;;;;;;;24.68;100.00;99942.73;105849;1251;73873;-53
2023/08/27 05:34:18;;;;;;;9.10;5.00;;;;;;;24.55;100.00;99956.48;106001;1256;64534;-53
2023/08/27 05:36:45;;;;;;;7.80;4.70;;;;;;;24.43;100.00;99978.17;105959;1256;71514;-54
2023/08/27 05:39:15;;;;;;;11.70;5.20;;;;;;;24.35;100.00;100009.31;105870;1256;60402;-53
2023/08/27 05:41:42;;;;;;;11.00;5.80;;;;;;;24.23;100.00;100010.84;105926;1251;61896;-53
2023/08/27 05:44:09;;;;;;;6.20;5.40;;;;;;;24.13;100.00;100016.99;105791;1256;73726;-53
2023/08/27 05:46:36;;;;;;;11.30;5.10;;;;;;;24.02;100.00;100009.38;105844;1257;64496;-54
2023/08/27 05:49:03;;;;;;;15.20;5.20;;;;;;;23.98;100.00;100058.84;105774;1253;72384;-53
2023/08/27 05:51:31;;;;;;;13.50;5.50;;;;;;;23.96;100.00;100076.80;105750;1257;60474;-53
2023/08/27 05:53:58;;;;;;;12.60;5.10;;;;;;;23.91;100.00;100092.53;105867;1254;60418;-52
2023/08/27 05:56:27;;;;;;;15.70;5.80;;;;;;;23.90;100.00;100108.80;105846;1254;74200;-52
2023/08/27 05:58:55;;;;;;;16.90;5.80;;;;;;;23.90;100.00;100117.84;105751;1257;64543;-54
2023/08/27 06:01:22;;;;;;;12.70;5.40;;;;;;;23.90;100.00;100134.70;105910;1253;72429;-54
2023/08/27 06:03:49;;;;;;;34.90;6.40;;;;;;;23.93;100.00;100164.77;105753;1257;60355;-54
2023/08/27 06:06:17;;;;;;;9.20;5.30;;;;;;;23.97;100.00;100191.73;105774;1252;61284;-52
2023/08/27 06:08:44;;;;;;;11.30;6.20;;;;;;;24.02;100.00;100171.83;105962;1253;73704;-53
2023/08/27 06:11:11;;;;;;;8.30;5.40;;;;;;;24.07;100.00;100159.95;105844;1257;64545;-54
2023/08/27 06:13:38;;;;;;;9.40;5.60;;;;;;;24.09;100.00;100146.21;106019;1253;72576;-54
2023/08/27 06:16:05;;;;;;;17.80;6.20;;;;;;;24.10;100.00;100089.56;105930;1257;60339;-54
2023/08/27 06:18:32;;;;;;;6.40;5.70;;;;;;;24.14;100.00;100091.23;106075;1253;60907;-54
2023/08/27 06:20:59;;;;;;;13.40;6.20;;;;;;;24.21;100.00;100102.85;105849;1256;73616;-54
2023/08/27 06:23:26;;;;;;;20.10;5.20;;;;;;;24.31;100.00;100124.43;105984;1256;64936;-53
2023/08/27 06:25:54;;;;;;;12.20;5.60;;;;;;;24.40;100.00;100132.83;105887;1256;71396;-55
2023/08/27 06:28:22;;;;;;;11.60;5.40;;;;;;;24.50;100.00;100120.08;105943;1253;60451;-54
2023/08/27 06:30:49;;;;;;;13.80;6.10;;;;;;;24.58;100.00;100058.38;105888;1252;60432;-54
2023/08/27 06:33:17;;;;;;;9.10;5.90;;;;;;;24.65;100.00;100019.86;105885;1253;72499;-56
2023/08/27 06:35:44;;;;;;;9.60;5.40;;;;;;;24.72;100.00;99981.77;105811;1253;64680;-54
2023/08/27 06:38:11;;;;;;;13.00;6.00;;;;;;;24.78;100.00;99969.45;105883;1253;72584;-55
2023/08/27 06:40:39;;;;;;;9.20;5.40;;;;;;;24.84;100.00;99959.90;105814;1253;61894;-55
2023/08/27 06:43:08;;;;;;;16.80;5.90;;;;;;;24.91;100.00;99963.69;105871;1253;60460;-57
2023/08/27 06:45:35;;;;;;;19.10;6.50;;;;;;;24.98;100.00;99965.59;105904;1253;73798;-55
2023/08/27 06:48:03;;;;;;;19.40;5.90;;;;;;;25.07;100.00;99954.22;105877;1257;64532;-55
2023/08/27 06:50:31;;;;;;;14.90;6.00;;;;;;;25.18;100.00;99960.67;105842;1257;72637;-55
2023/08/27 06:52:58;;;;;;;10.30;5.80;;;;;;;25.29;100.00;99946.88;105859;1253;61872;-52
2023/08/27 06:55:25;;;;;;;13.60;5.50;;;;;;;25.38;100.00;99943.55;105862;1253;60563;-54
2023/08/27 06:57:53;;;;;;;10.00;5.40;;;;;;;25.52;100.00;99934.63;105830;1257;73731;-52
2023/08/27 07:00:21;;;;;;;12.30;5.50;;;;;;;25.59;100.00;99917.20;105751;1257;65000;-52
2023/08/27 07:02:49;;;;;;;8.60;5.80;;;;;;;25.68;100.00;99919.43;105718;1253;72790;-54
2023/08/27 07:05:18;;;;;;;8.70;5.70;;;;;;;25.79;100.00;99921.41;105834;1253;62079;-53
2023/08/27 07:07:45;;;;;;;10.80;5.90;;;;;;;25.96;100.00;99924.44;105682;1253;60588;-54
2023/08/27 07:10:12;;;;;;;10.00;6.40;;;;;;;26.14;100.00;99929.66;105808;1257;73789;-54
2023/08/27 07:12:39;;;;;;;13.60;6.10;;;;;;;26.29;100.00;99937.05;105784;1257;64549;-53
2023/08/27 07:15:07;;;;;;;8.80;5.70;;;;;;;26.36;100.00;99955.39;105847;1253;72648;-54
2023/08/27 07:17:34;;;;;;;14.30;5.70;;;;;;;26.45;100.00;99967.06;105940;1257;60894;-54
2023/08/27 07:20:03;;;;;;;14.70;5.80;;;;;;;26.52;100.00;99977.67;105869;1253;60462;-55
2023/08/27 07:22:30;;;;;;;11.20;5.80;;;;;;;26.65;100.00;99978.64;105898;1257;73724;-53
2023/08/27 07:24:57;;;;;;;14.80;5.80;;;;;;;26.78;100.00;99990.70;105858;1257;64686;-53
2023/08/27 07:27:24;;;;;;;12.60;6.10;;;;;;;26.88;100.00;100007.84;105788;1253;72563;-53
2023/08/27 07:29:51;;;;;;;9.10;5.90;;;;;;;26.99;100.00;100016.73;105687;1257;60415;-53
2023/08/27 07:32:18;;;;;;;10.40;6.10;;;;;;;27.06;100.00;100043.14;105872;1253;60944;-53
2023/08/27 07:34:45;;;;;;;10.10;5.80;;;;;;;27.17;100.00;100062.06;105904;1251;73774;-52
2023/08/27 07:37:14;;;;;;;10.20;5.80;;;;;;;27.29;100.00;100084.16;105888;1256;64655;-54
2023/08/27 07:39:41;;;;;;;12.60;6.40;;;;;;;27.33;100.00;100118.55;105684;1253;72706;-53
2023/08/27 07:42:08;;;;;;;14.40;6.20;;;;;;;27.42;100.00;100122.95;105951;1256;61894;-55
2023/08/27 07:44:35;;;;;;;13.50;5.70;;;;;;;27.58;100.00;100115.99;105858;1251;60590;-55
2023/08/27 07:47:03;;;;;;;8.80;6.20;;;;;;;27.71;100.00;100119.48;105819;1253;73842;-55
2023/08/27 07:49:31;;;;;;;12.70;6.30;;;;;;;27.84;100.00;100133.38;105795;1258;64673;-55
2023/08/27 07:52:03;;;;;;;11.10;5.70;;;;;;;27.92;100.00;100155.99;105858;1253;72166;-55
2023/08/27 07:54:30;;;;;;;7.50;5.80;;;;;;;28.00;100.00;100178.29;105884;1253;60460;-54
2023/08/27 07:56:59;;;;;;;10.60;6.20;;;;;;;28.10;100.00;100190.77;105917;1253;60440;-52
2023/08/27 07:59:26;;;;;;;16.20;6.10;;;;;;;28.21;100.00;100202.53;105879;1256;73880;-53
2023/08/27 08:01:53;;;;;;;7.10;5.70;;;;;;;28.28;100.00;100211.05;105782;1257;64775;-53
2023/08/27 08:04:21;;;;;;;14.90;6.30;;;;;;;28.32;100.00;100214.98;105931;1256;72674;-53
2023/08/27 08:06:48;;;;;;;10.90;6.30;;;;;;;28.31;100.00;100229.40;105887;1256;60355;-53
2023/08/27 08:09:15;;;;;;;11.80;6.10;;;;;;;28.41;100.00;100234.16;105927;1252;60437;-55
2023/08/27 08:11:42;;;;;;;24.90;6.70;;;;;;;28.53;100.00;100233.79;105886;1256;73650;-55
2023/08/27 08:14:09;;;;;;;14.20;5.90;;;;;;;28.61;100.00;100222.05;105888;1257;64552;-54
2023/08/27 08:16:36;;;;;;;18.00;6.10;;;;;;;28.75;100.00;100228.02;105965;1253;72695;-54
2023/08/27 08:19:03;;;;;;;16.20;6.00;;;;;;;28.94;100.00;100211.77;105953;1256;60770;-53
2023/08/27 08:21:30;;;;;;;9.60;5.80;;;;;;;29.02;100.00;100224.52;105921;1251;60533;-54
2023/08/27 08:23:56;;;;;;;16.20;6.20;;;;;;;29.20;100.00;100213.77;105948;1252;73835;-55
2023/08/27 08:26:24;;;;;;;7.30;5.30;;;;;;;29.32;100.00;100225.89;105879;1256;64619;-55
2023/08/27 08:28:50;;;;;;;19.40;6.30;;;;;;;29.43;100.00;100215.86;105895;1253;73081;-54
2023/08/27 08:31:17;;;;;;;15.00;5.80;;;;;;;29.52;91.95;100182.10;105821;1256;60349;-54
2023/08/27 08:33:44;;;;;;;6.70;5.90;;;;;;;29.65;89.22;100191.09;105894;1254;60434;-55
2023/08/27 08:36:11;;;;;;;12.70;5.80;;;;;;;29.83;86.06;100199.15;105951;1254;73651;-55
2023/08/27 08:38:38;;;;;;;17.00;5.20;;;;;;;29.95;84.40;100208.27;105993;1256;64643;-55
2023/08/27 08:41:05;;;;;;;13.70;5.50;;;;;;;30.02;81.87;100194.39;105876;1253;73491;-55
2023/08/27 08:43:42;;;;;;;12.10;5.90;;;;;;;30.18;83.05;100219.41;105822;1257;60855;-54
2023/08/27 08:46:09;;;;;;;11.10;6.00;;;;;;;30.46;80.22;100188.20;105846;1253;60517;-55
2023/08/27 08:48:42;;;;;;;14.40;6.00;;;;;;;30.52;80.28;100206.56;105739;1254;73779;-55
2023/08/27 08:51:09;;;;;;;19.40;5.60;;;;;;;30.56;75.86;100166.45;105821;1257;64493;-55
2023/08/27 08:53:41;;;;;;;17.10;6.00;;;;;;;30.62;74.23;100168.12;105783;1253;72644;-54
2023/08/27 08:56:29;;;;;;;14.30;6.10;;;;;;;30.77;71.94;100149.46;105833;1253;60536;-55
2023/08/27 08:58:57;;;;;;;13.10;5.30;;;;;;;30.77;70.85;100151.26;105879;1256;60314;-55
2023/08/27 09:01:24;;;;;;;12.90;5.70;;;;;;;30.75;70.78;100166.70;105918;1256;74407;-56
2023/08/27 09:03:51;;;;;;;13.80;5.80;;;;;;;30.72;69.90;100156.98;105838;1256;65141;-54
2023/08/27 09:06:19;;;;;;;11.20;5.70;;;;;;;30.74;70.27;100169.39;105885;1253;71689;-54
2023/08/27 09:08:46;;;;;;;16.60;5.40;;;;;;;30.85;69.01;100151.23;105857;1256;62414;-55
2023/08/27 09:11:14;;;;;;;9.80;4.90;;;;;;;30.93;67.83;100131.10;105983;1253;60449;-54
2023/08/27 09:13:43;;;;;;;14.00;5.50;;;;;;;30.99;68.07;100147.56;105799;1253;72598;-54
2023/08/27 09:16:13;;;;;;;13.40;5.00;;;;;;;31.06;67.16;100134.52;105746;1253;64498;-54
2023/08/27 09:18:40;;;;;;;9.20;5.10;;;;;;;31.13;66.65;100131.95;105752;1253;72432;-55
2023/08/27 09:21:07;;;;;;;12.90;5.20;;;;;;;31.08;64.98;100107.06;105776;1257;60505;-55
2023/08/27 09:23:37;;;;;;;13.70;5.10;;;;;;;31.08;65.28;100124.52;105966;1256;60567;-55
2023/08/27 09:26:07;;;;;;;10.10;5.30;;;;;;;31.18;64.88;100115.39;106018;1253;72615;-56
2023/08/27 09:28:34;;;;;;;12.00;5.40;;;;;;;31.30;65.75;100146.04;105925;1256;64649;-55
2023/08/27 09:31:01;;;;;;;13.30;5.40;;;;;;;31.45;65.81;100148.27;105869;1256;72052;-54
2023/08/27 09:33:41;;;;;;;15.30;5.90;;;;;;;31.59;65.27;100140.78;105845;1252;60456;-54
2023/08/27 09:36:09;;;;;;;11.10;5.30;;;;;;;31.66;62.71;100079.20;105967;1252;60414;-55
2023/08/27 09:38:36;;;;;;;13.20;5.10;;;;;;;31.60;63.51;100108.96;105958;1256;73728;-54
2023/08/27 09:41:14;;;;;;;14.10;5.20;;;;;;;31.64;63.53;100117.05;105906;1256;64736;-53
2023/08/27 09:43:54;;;;;;;12.40;5.30;;;;;;;31.71;62.45;100090.33;105836;1253;73637;-53
2023/08/27 09:46:21;;;;;;;20.20;5.30;;;;;;;31.59;61.97;100085.56;105880;1256;60341;-54
2023/08/27 09:48:58;;;;;;;7.80;5.10;;;;;;;31.59;64.13;100148.97;105899;1253;60531;-55
2023/08/27 09:51:27;;;;;;;11.90;5.60;;;;;;;31.75;62.61;100108.03;105964;1253;74449;-54
2023/08/27 09:53:54;;;;;;;6.40;4.90;;;;;;;31.85;62.05;100096.21;105857;1256;64930;-56
2023/08/27 09:56:23;;;;;;;8.60;4.80;;;;;;;32.01;61.01;100064.06;105911;1253;72683;-54
2023/08/27 09:58:53;;;;;;;9.30;5.10;;;;;;;32.14;58.05;99954.98;105771;1256;60432;-54
2023/08/27 10:01:26;;;;;;;9.30;5.10;;;;;;;32.08;58.69;100010.02;105786;1253;60450;-55
2023/08/27 10:03:53;;;;;;;27.30;6.10;;;;;;;32.15;59.82;100059.25;105710;1253;72396;-54
2023/08/27 10:06:20;;;;;;;11.00;4.80;;;;;;;32.34;59.57;100045.91;105877;1256;64823;-54
2023/08/27 10:08:48;;;;;;;13.30;5.30;;;;;;;32.45;58.02;99979.36;105767;1253;72901;-53
2023/08/27 10:11:16;;;;;;;17.70;5.00;;;;;;;32.54;57.36;99966.14;105964;1251;60456;-54
2023/08/27 10:13:43;;;;;;;7.80;4.60;;;;;;;32.66;57.79;99992.58;105867;1252;61211;-54
2023/08/27 10:16:12;;;;;;;10.40;4.40;;;;;;;32.79;56.16;99917.13;105822;1254;72477;-55
2023/08/27 10:18:40;;;;;;;9.60;4.00;;;;;;;32.83;54.43;99837.96;105871;1253;63430;-55
2023/08/27 10:21:10;;;;;;;5.70;4.20;;;;;;;32.84;55.07;99894.16;106219;1253;72694;-55
2023/08/27 10:23:42;;;;;;;6.50;4.20;;;;;;;32.92;54.31;99864.67;105905;1259;60634;-55
2023/08/27 10:26:09;;;;;;;4.40;3.70;;;;;;;32.91;53.32;99805.83;105836;1253;60444;-55
2023/08/27 10:28:35;;;;;;;8.30;4.50;;;;;;;32.85;54.24;99902.79;105805;1254;73838;-54
2023/08/27 10:31:03;;;;;;;20.30;4.60;;;;;;;32.90;53.33;99830.16;106017;1256;64587;-55
2023/08/27 10:33:31;;;;;;;7.40;4.40;;;;;;;32.88;53.96;99895.80;105874;1253;72524;-54
2023/08/27 10:36:04;;;;;;;19.40;5.70;;;;;;;32.85;54.46;99927.47;105873;1253;60468;-58
2023/08/27 10:38:32;;;;;;;11.10;5.30;;;;;;;32.71;54.01;99912.15;105821;1253;60474;-54
2023/08/27 10:40:59;;;;;;;15.10;4.50;;;;;;;32.52;54.51;99952.23;105749;1253;73818;-53
2023/08/27 10:43:26;;;;;;;14.70;4.90;;;;;;;32.36;54.72;99974.02;105869;1253;64642;-55
2023/08/27 10:45:53;;;;;;;14.80;4.70;;;;;;;32.26;56.29;100060.13;105606;1261;71593;-55
2023/08/27 10:48:20;;;;;;;7.90;4.60;;;;;;;32.28;56.90;100077.66;105677;1259;60427;-55
2023/08/27 10:50:52;;;;;;;31.20;5.40;;;;;;;32.37;56.45;100038.10;105854;1251;60561;-54
2023/08/27 10:53:19;;;;;;;80.40;7.10;;;;;;;32.49;56.38;100028.27;105837;1256;73745;-56
2023/08/27 10:55:51;;;;;;;23.10;5.10;;;;;;;32.67;56.85;100041.02;106063;1256;64628;-54
2023/08/27 10:58:22;;;;;;;44.30;6.80;;;;;;;32.84;55.56;99964.02;105965;1256;73155;-54
2023/08/27 11:01:09;;;;;;;23.10;4.70;;;;;;;32.94;54.73;99922.57;105855;1256;60400;-55
2023/08/27 11:04:00;;;;;;;51.20;6.00;;;;;;;32.92;52.30;99761.73;105779;1253;60483;-54
2023/08/27 11:06:38;;;;;;;37.00;5.50;;;;;;;32.71;50.83;99673.09;105980;1256;73187;-56
2023/08/27 11:09:15;;;;;;;9.50;4.10;;;;;;;32.60;52.84;99839.20;105998;1256;64720;-55
2023/08/27 11:11:53;;;;;;;26.50;5.00;;;;;;;32.68;52.66;99835.87;105975;1255;73110;-54
2023/08/27 11:14:22;;;;;;;39.20;5.20;;;;;;;32.68;52.11;99803.19;106094;1255;60370;-56